createdAt,value
2023-02-13T00:00:30.878Z,-1.18
2023-02-13T00:02:57.838Z,-1.11
2023-02-13T00:05:24.885Z,-1.13
2023-02-13T00:07:51.893Z,-1.19
2023-02-13T00:10:18.819Z,-1.28
2023-02-13T00:12:45.756Z,-1.34
2023-02-13T00:15:12.608Z,-1.33
2023-02-13T00:17:39.439Z,-1.33
2023-02-13T00:20:07.164Z,-1.35
2023-02-13T00:22:38.372Z,-1.35
2023-02-13T00:25:06.418Z,-1.43
2023-02-13T00:27:33.647Z,-1.49
2023-02-13T00:30:00.616Z,-1.49
2023-02-13T00:32:27.434Z,-1.54
2023-02-13T00:34:55.826Z,-1.52
2023-02-13T00:37:23.287Z,-1.57
2023-02-13T00:39:52.288Z,-1.61
2023-02-13T00:42:20.590Z,-1.60
2023-02-13T00:44:47.479Z,-1.58
2023-02-13T00:47:14.959Z,-1.56
2023-02-13T00:49:42.018Z,-1.67
2023-02-13T00:52:08.916Z,-1.67
2023-02-13T00:54:35.700Z,-1.64
2023-02-13T00:57:03.102Z,-1.67
2023-02-13T00:59:30.193Z,-1.58
2023-02-13T01:01:57.109Z,-1.70
2023-02-13T01:04:24.060Z,-1.63
2023-02-13T01:06:51.118Z,-1.50
2023-02-13T01:09:18.036Z,-1.41
2023-02-13T01:11:44.927Z,-1.35
2023-02-13T01:14:11.875Z,-1.35
2023-02-13T01:16:39.924Z,-1.32
2023-02-13T01:19:06.719Z,-1.36
2023-02-13T01:21:33.526Z,-1.32
2023-02-13T01:24:04.553Z,-1.46
2023-02-13T01:26:31.277Z,-1.43
2023-02-13T01:28:58.214Z,-1.44
2023-02-13T01:31:26.337Z,-1.42
2023-02-13T01:33:56.501Z,-1.49
2023-02-13T01:36:23.868Z,-1.44
2023-02-13T01:38:55.061Z,-1.38
2023-02-13T01:41:22.762Z,-1.38
2023-02-13T01:43:55.420Z,-1.33
2023-02-13T01:46:28.076Z,-1.24
2023-02-13T01:48:59.041Z,-1.18
2023-02-13T01:51:32.067Z,-1.17
2023-02-13T01:54:04.298Z,-1.07
2023-02-13T01:56:31.781Z,-0.96
2023-02-13T01:59:02.830Z,-1.04
2023-02-13T02:01:31.513Z,-0.77
2023-02-13T02:04:09.477Z,-0.84
2023-02-13T02:06:45.016Z,-0.89
2023-02-13T02:09:20.808Z,-0.82
2023-02-13T02:12:00.829Z,-0.90
2023-02-13T02:14:28.518Z,-0.94
2023-02-13T02:16:57.613Z,-1.03
2023-02-13T02:19:33.914Z,-0.93
2023-02-13T02:22:15.786Z,-0.93
2023-02-13T02:25:04.462Z,-0.99
2023-02-13T02:27:35.034Z,-1.03
2023-02-13T02:30:07.919Z,-1.08
2023-02-13T02:32:47.623Z,-1.21
2023-02-13T02:35:51.032Z,-1.19
2023-02-13T02:38:27.296Z,-1.33
2023-02-13T02:41:05.177Z,-1.32
2023-02-13T02:43:59.226Z,-1.27
2023-02-13T02:46:39.824Z,-1.40
2023-02-13T02:49:38.487Z,-1.45
2023-02-13T02:52:47.334Z,-1.64
2023-02-13T02:55:18.217Z,-1.63
2023-02-13T02:58:36.062Z,-1.76
2023-02-13T03:01:26.258Z,-1.75
2023-02-13T03:04:16.228Z,-1.67
2023-02-13T03:06:57.854Z,-1.71
2023-02-13T03:09:54.300Z,-1.73
2023-02-13T03:12:42.219Z,-1.87
2023-02-13T03:15:09.995Z,-1.91
2023-02-13T03:17:56.216Z,-1.87
2023-02-13T03:21:03.840Z,-1.89
2023-02-13T03:24:11.899Z,-1.88
2023-02-13T03:27:08.480Z,-1.95
2023-02-13T03:30:07.412Z,-1.99
2023-02-13T03:33:12.464Z,-2.03
2023-02-13T03:36:30.418Z,-2.26
2023-02-13T03:39:48.752Z,-2.17
2023-02-13T03:42:35.648Z,-2.34
2023-02-13T03:45:28.232Z,-2.26
2023-02-13T03:47:58.063Z,-2.27
2023-02-13T03:50:27.558Z,-2.34
2023-02-13T03:53:11.727Z,-2.32
2023-02-13T03:56:03.996Z,-2.51
2023-02-13T03:58:53.689Z,-2.38
2023-02-13T04:01:26.514Z,-2.44
2023-02-13T04:03:56.341Z,-2.36
2023-02-13T04:06:31.660Z,-2.30
2023-02-13T04:08:59.098Z,-2.37
2023-02-13T04:11:35.304Z,-2.30
2023-02-13T04:14:13.927Z,-2.46
2023-02-13T04:16:45.777Z,-2.31
2023-02-13T04:19:13.362Z,-2.35
2023-02-13T04:21:41.234Z,-2.22
2023-02-13T04:24:08.870Z,-2.20
2023-02-13T04:26:39.719Z,-2.10
2023-02-13T04:29:06.637Z,-2.13
2023-02-13T04:31:33.750Z,-2.05
2023-02-13T04:34:01.007Z,-2.03
2023-02-13T04:36:28.158Z,-2.11
2023-02-13T04:38:55.062Z,-2.06
2023-02-13T04:41:22.011Z,-2.08
2023-02-13T04:43:49.228Z,-2.16
2023-02-13T04:46:16.131Z,-2.01
2023-02-13T04:48:42.919Z,-1.85
2023-02-13T04:51:09.695Z,-1.87
2023-02-13T04:53:36.699Z,-2.16
2023-02-13T04:56:03.790Z,-2.24
2023-02-13T04:58:30.897Z,-2.26
2023-02-13T05:00:58.000Z,-2.25
2023-02-13T05:03:25.102Z,-2.48
2023-02-13T05:05:51.920Z,-2.33
2023-02-13T05:08:18.862Z,-2.43
2023-02-13T05:10:45.643Z,-2.41
2023-02-13T05:13:12.935Z,-2.46
2023-02-13T05:15:40.041Z,-2.55
2023-02-13T05:18:07.051Z,-2.65
2023-02-13T05:20:34.108Z,-2.65
2023-02-13T05:23:19.620Z,-2.66
2023-02-13T05:25:46.763Z,-2.74
2023-02-13T05:28:32.799Z,-2.82
2023-02-13T05:31:00.269Z,-2.79
2023-02-13T05:33:27.741Z,-2.77
2023-02-13T05:35:54.720Z,-2.71
2023-02-13T05:38:21.749Z,-2.72
2023-02-13T05:40:49.015Z,-2.71
2023-02-13T05:43:16.045Z,-2.74
2023-02-13T05:45:42.932Z,-2.82
2023-02-13T05:48:09.692Z,-2.71
2023-02-13T05:50:36.758Z,-2.70
2023-02-13T05:53:03.874Z,-2.68
2023-02-13T05:55:31.166Z,-2.64
2023-02-13T05:57:59.238Z,-2.62
2023-02-13T06:00:26.191Z,-2.58
2023-02-13T06:02:53.235Z,-2.48
2023-02-13T06:05:20.240Z,-2.42
2023-02-13T06:07:47.174Z,-2.38
2023-02-13T06:10:14.169Z,-2.23
2023-02-13T06:12:42.793Z,-2.20
2023-02-13T06:15:16.469Z,-2.19
2023-02-13T06:17:43.490Z,-2.18
2023-02-13T06:20:10.656Z,-2.01
2023-02-13T06:22:37.623Z,-1.88
2023-02-13T06:25:04.913Z,-1.92
2023-02-13T06:27:31.838Z,-1.75
2023-02-13T06:29:58.669Z,-1.63
2023-02-13T06:32:25.526Z,-1.49
2023-02-13T06:34:52.452Z,-1.35
2023-02-13T06:37:19.315Z,-1.26
2023-02-13T06:39:46.287Z,-1.17
2023-02-13T06:42:13.312Z,-1.14
2023-02-13T06:44:40.293Z,-0.90
2023-02-13T06:47:07.283Z,-0.80
2023-02-13T06:49:34.304Z,-0.66
2023-02-13T06:52:01.210Z,-0.59
2023-02-13T06:54:44.784Z,-0.55
2023-02-13T06:57:13.733Z,-0.47
2023-02-13T06:59:40.655Z,-0.27
2023-02-13T07:02:09.191Z,-0.20
2023-02-13T07:04:36.247Z,-0.26
2023-02-13T07:07:03.289Z,-0.21
2023-02-13T07:09:31.772Z,-0.07
2023-02-13T07:11:58.970Z,0.08
2023-02-13T07:14:25.949Z,0.18
2023-02-13T07:16:52.754Z,0.29
2023-02-13T07:19:19.511Z,0.47
2023-02-13T07:21:46.644Z,0.62
2023-02-13T07:24:13.807Z,0.82
2023-02-13T07:26:40.768Z,0.96
2023-02-13T07:29:12.140Z,1.11
2023-02-13T07:31:40.147Z,1.17
2023-02-13T07:34:07.925Z,1.25
2023-02-13T07:36:35.185Z,1.33
2023-02-13T07:39:02.284Z,1.51
2023-02-13T07:41:29.368Z,1.71
2023-02-13T07:43:56.516Z,1.92
2023-02-13T07:46:23.402Z,1.98
2023-02-13T07:48:52.580Z,2.18
2023-02-13T07:51:19.902Z,2.26
2023-02-13T07:53:46.784Z,2.37
2023-02-13T07:56:14.946Z,2.54
2023-02-13T07:58:42.006Z,2.59
2023-02-13T08:01:15.058Z,2.76
2023-02-13T08:03:42.300Z,2.87
2023-02-13T08:06:14.148Z,3.02
2023-02-13T08:08:41.410Z,3.16
2023-02-13T08:11:51.922Z,3.27
2023-02-13T08:14:18.751Z,3.40
2023-02-13T08:16:45.750Z,3.44
2023-02-13T08:19:12.594Z,3.56
2023-02-13T08:21:40.770Z,3.60
2023-02-13T08:24:08.188Z,3.68
2023-02-13T08:26:35.183Z,3.79
2023-02-13T08:29:02.434Z,3.86
2023-02-13T08:31:29.376Z,4.07
2023-02-13T08:33:57.563Z,4.14
2023-02-13T08:36:25.350Z,4.19
2023-02-13T08:38:52.668Z,4.37
2023-02-13T08:41:21.179Z,4.44
2023-02-13T08:43:52.463Z,4.51
2023-02-13T08:46:19.434Z,4.61
2023-02-13T08:48:46.503Z,4.69
2023-02-13T08:51:14.713Z,4.78
2023-02-13T08:53:42.639Z,4.89
2023-02-13T08:56:10.063Z,5.01
2023-02-13T08:58:37.088Z,4.93
2023-02-13T09:01:08.625Z,5.07
2023-02-13T09:03:36.732Z,5.20
2023-02-13T09:06:03.832Z,5.33
2023-02-13T09:08:31.258Z,5.49
2023-02-13T09:11:02.177Z,5.32
2023-02-13T09:13:30.472Z,5.41
2023-02-13T09:16:02.410Z,5.51
2023-02-13T09:18:29.390Z,5.59
2023-02-13T09:21:23.754Z,5.41
2023-02-13T09:23:51.680Z,5.63
2023-02-13T09:26:20.696Z,5.75
2023-02-13T09:28:47.777Z,5.91
2023-02-13T09:31:17.902Z,5.89
2023-02-13T09:33:46.545Z,5.96
2023-02-13T09:36:16.276Z,5.93
2023-02-13T09:38:44.336Z,6.06
2023-02-13T09:41:33.972Z,6.18
2023-02-13T09:44:34.332Z,6.21
2023-02-13T09:47:04.303Z,6.32
2023-02-13T09:49:35.430Z,6.31
2023-02-13T09:52:02.565Z,6.33
2023-02-13T09:54:32.242Z,6.32
2023-02-13T09:57:05.432Z,6.41
2023-02-13T09:59:50.952Z,6.53
2023-02-13T10:02:46.116Z,6.59
2023-02-13T10:05:37.971Z,6.68
2023-02-13T10:08:21.492Z,6.57
2023-02-13T10:10:54.780Z,6.65
2023-02-13T10:13:49.251Z,6.66
2023-02-13T10:16:51.021Z,6.79
2023-02-13T10:19:38.002Z,6.74
2023-02-13T10:22:12.238Z,6.85
2023-02-13T10:24:52.643Z,6.97
2023-02-13T10:27:25.139Z,7.01
2023-02-13T10:30:07.071Z,6.93
2023-02-13T10:32:43.857Z,6.80
2023-02-13T10:35:38.873Z,6.96
2023-02-13T10:38:16.299Z,6.78
2023-02-13T10:40:53.896Z,6.84
2023-02-13T10:43:27.711Z,6.74
2023-02-13T10:46:03.780Z,7.08
2023-02-13T10:48:59.370Z,6.98
2023-02-13T10:52:05.079Z,6.97
2023-02-13T10:55:01.526Z,7.00
2023-02-13T10:57:47.560Z,7.09
2023-02-13T11:00:20.783Z,7.09
2023-02-13T11:02:48.441Z,6.99
2023-02-13T11:05:22.621Z,7.11
2023-02-13T11:07:49.945Z,7.22
2023-02-13T11:10:22.850Z,7.25
2023-02-13T11:12:51.243Z,7.20
2023-02-13T11:15:33.016Z,7.28
2023-02-13T11:18:13.073Z,7.46
2023-02-13T11:20:48.156Z,7.51
2023-02-13T11:23:30.680Z,7.45
2023-02-13T11:26:22.270Z,7.38
2023-02-13T11:28:54.897Z,7.34
2023-02-13T11:31:24.051Z,7.39
2023-02-13T11:33:51.827Z,7.52
2023-02-13T11:36:35.264Z,7.59
2023-02-13T11:39:13.338Z,7.45
2023-02-13T11:41:43.924Z,7.61
2023-02-13T11:44:31.388Z,7.90
2023-02-13T11:47:00.881Z,7.82
2023-02-13T11:49:34.414Z,7.58
2023-02-13T11:52:07.704Z,7.59
2023-02-13T11:54:44.242Z,7.69
2023-02-13T11:57:29.968Z,7.65
2023-02-13T11:59:57.731Z,7.92
2023-02-13T12:02:29.400Z,7.82
2023-02-13T12:05:14.949Z,7.69
2023-02-13T12:07:42.867Z,7.81
2023-02-13T12:10:15.641Z,7.64
2023-02-13T12:13:06.328Z,7.58
2023-02-13T12:15:35.453Z,7.88
2023-02-13T12:18:35.070Z,7.88
2023-02-13T12:21:31.976Z,7.90
2023-02-13T12:24:09.969Z,7.41
2023-02-13T12:26:48.426Z,7.82
2023-02-13T12:29:34.343Z,7.66
2023-02-13T12:32:15.623Z,7.98
2023-02-13T12:35:04.596Z,7.91
2023-02-13T12:37:55.216Z,8.01
2023-02-13T12:40:46.886Z,8.12
2023-02-13T12:43:25.840Z,8.07
2023-02-13T12:46:04.810Z,8.06
2023-02-13T12:48:42.308Z,7.91
2023-02-13T12:51:21.376Z,7.75
2023-02-13T12:54:07.106Z,7.84
2023-02-13T12:56:34.123Z,7.90
2023-02-13T12:59:13.787Z,7.80
2023-02-13T13:01:49.503Z,7.76
2023-02-13T13:04:51.744Z,8.07
2023-02-13T13:07:24.659Z,7.99
2023-02-13T13:10:18.889Z,8.07
2023-02-13T13:13:14.876Z,8.05
2023-02-13T13:15:53.886Z,8.18
2023-02-13T13:18:42.339Z,7.98
2023-02-13T13:21:33.340Z,8.02
2023-02-13T13:24:29.986Z,8.03
2023-02-13T13:26:58.091Z,7.78
2023-02-13T13:29:31.821Z,7.91
2023-02-13T13:32:05.891Z,7.97
2023-02-13T13:34:35.760Z,8.01
2023-02-13T13:37:18.876Z,8.02
2023-02-13T13:39:52.578Z,8.03
2023-02-13T13:42:31.184Z,7.85
2023-02-13T13:45:18.258Z,7.94
2023-02-13T13:48:19.395Z,7.82
2023-02-13T13:50:47.443Z,7.85
2023-02-13T13:53:20.372Z,7.88
2023-02-13T13:55:47.548Z,7.92
2023-02-13T13:58:35.680Z,7.76
2023-02-13T14:01:14.900Z,7.67
2023-02-13T14:03:46.086Z,7.79
2023-02-13T14:06:40.188Z,7.63
2023-02-13T14:09:27.999Z,7.61
2023-02-13T14:11:56.683Z,7.54
2023-02-13T14:14:30.660Z,7.45
2023-02-13T14:17:04.719Z,7.40
2023-02-13T14:19:42.998Z,7.48
2023-02-13T14:22:18.837Z,7.42
2023-02-13T14:24:57.099Z,7.33
2023-02-13T14:27:42.188Z,7.34
2023-02-13T14:30:30.902Z,7.33
2023-02-13T14:33:02.770Z,7.28
2023-02-13T14:35:37.555Z,7.22
2023-02-13T14:38:21.853Z,7.08
2023-02-13T14:40:50.486Z,7.16
2023-02-13T14:43:27.845Z,7.15
2023-02-13T14:46:15.303Z,6.86
2023-02-13T14:49:30.060Z,7.08
2023-02-13T14:52:01.744Z,6.99
2023-02-13T14:54:49.441Z,7.00
2023-02-13T14:57:23.323Z,6.91
2023-02-13T14:59:56.469Z,6.85
2023-02-13T15:02:25.618Z,6.87
2023-02-13T15:04:57.449Z,6.79
2023-02-13T15:07:29.665Z,6.72
2023-02-13T15:10:02.136Z,6.66
2023-02-13T15:12:31.980Z,6.57
2023-02-13T15:15:01.916Z,6.49
2023-02-13T15:17:40.275Z,6.41
2023-02-13T15:20:18.239Z,6.36
2023-02-13T15:22:47.153Z,6.21
2023-02-13T15:25:29.290Z,6.18
2023-02-13T15:27:58.736Z,6.03
2023-02-13T15:30:36.792Z,5.98
2023-02-13T15:33:17.859Z,5.93
2023-02-13T15:35:45.137Z,5.79
2023-02-13T15:38:25.232Z,5.73
2023-02-13T15:40:55.840Z,5.58
2023-02-13T15:43:30.755Z,5.58
2023-02-13T15:46:03.145Z,5.43
2023-02-13T15:48:31.947Z,5.38
2023-02-13T15:50:59.385Z,5.18
2023-02-13T15:53:26.583Z,5.18
2023-02-13T15:56:00.375Z,5.11
2023-02-13T15:58:34.140Z,5.03
2023-02-13T16:01:05.482Z,4.93
2023-02-13T16:03:33.454Z,4.80
2023-02-13T16:06:00.925Z,4.71
2023-02-13T16:08:29.680Z,4.57
2023-02-13T16:11:20.848Z,4.51
2023-02-13T16:14:00.324Z,4.45
2023-02-13T16:16:29.337Z,4.26
2023-02-13T16:18:56.757Z,4.18
2023-02-13T16:21:31.068Z,4.17
2023-02-13T16:24:03.627Z,4.05
2023-02-13T16:26:31.539Z,3.96
2023-02-13T16:28:58.490Z,3.83
2023-02-13T16:31:25.763Z,3.66
2023-02-13T16:33:52.676Z,3.69
2023-02-13T16:36:28.424Z,3.53
2023-02-13T16:39:01.103Z,3.54
2023-02-13T16:41:33.195Z,3.47
2023-02-13T16:44:04.780Z,3.35
2023-02-13T16:46:35.822Z,3.31
2023-02-13T16:49:15.252Z,3.18
2023-02-13T16:51:56.536Z,3.18
2023-02-13T16:54:29.856Z,3.07
2023-02-13T16:57:07.264Z,2.99
2023-02-13T17:00:25.587Z,2.95
2023-02-13T17:02:59.453Z,2.88
2023-02-13T17:05:30.221Z,2.80
2023-02-13T17:07:59.539Z,2.70
2023-02-13T17:10:37.933Z,2.61
2023-02-13T17:13:13.732Z,2.62
2023-02-13T17:15:46.253Z,2.49
2023-02-13T17:18:13.814Z,2.35
2023-02-13T17:20:43.852Z,2.28
2023-02-13T17:23:24.097Z,2.28
2023-02-13T17:25:55.098Z,2.18
2023-02-13T17:28:29.166Z,2.01
2023-02-13T17:30:58.725Z,2.10
2023-02-13T17:33:29.206Z,2.05
2023-02-13T17:35:56.567Z,2.04
2023-02-13T17:38:23.629Z,1.88
2023-02-13T17:41:05.261Z,1.86
2023-02-13T17:43:38.828Z,1.75
2023-02-13T17:46:06.422Z,1.72
2023-02-13T17:48:37.282Z,1.70
2023-02-13T17:51:10.452Z,1.66
2023-02-13T17:53:38.133Z,1.64
2023-02-13T17:58:47.463Z,1.50
2023-02-13T18:01:14.473Z,1.48
2023-02-13T18:03:43.766Z,1.45
2023-02-13T18:06:13.068Z,1.42
2023-02-13T18:08:39.987Z,1.45
2023-02-13T18:11:11.610Z,1.41
2023-02-13T18:13:38.532Z,1.42
2023-02-13T18:16:09.531Z,1.39
2023-02-13T18:18:36.468Z,1.26
2023-02-13T18:21:03.330Z,1.28
2023-02-13T18:23:30.273Z,1.22
2023-02-13T18:26:10.582Z,1.23
2023-02-13T18:28:38.035Z,1.12
2023-02-13T18:31:05.092Z,1.06
2023-02-13T18:33:32.439Z,1.03
2023-02-13T18:36:01.787Z,0.91
2023-02-13T18:38:29.406Z,0.88
2023-02-13T18:41:23.338Z,0.87
2023-02-13T18:43:50.260Z,0.81
2023-02-13T18:46:17.343Z,0.77
2023-02-13T18:48:44.422Z,0.74
2023-02-13T18:51:38.166Z,0.78
2023-02-13T18:54:05.219Z,0.65
2023-02-13T18:56:32.457Z,0.83
2023-02-13T18:58:59.900Z,0.75
2023-02-13T19:01:26.737Z,0.73
2023-02-13T19:03:54.695Z,0.64
2023-02-13T19:06:24.471Z,0.67
2023-02-13T19:08:51.585Z,0.62
2023-02-13T19:11:20.633Z,0.60
2023-02-13T19:13:47.796Z,0.56
2023-02-13T19:16:19.416Z,0.50
2023-02-13T19:18:56.372Z,0.47
2023-02-13T19:21:26.578Z,0.44
2023-02-13T19:23:53.430Z,0.33
2023-02-13T19:26:28.286Z,0.43
2023-02-13T19:28:56.827Z,0.45
2023-02-13T19:31:27.150Z,0.39
2023-02-13T19:33:54.523Z,0.34
2023-02-13T19:36:24.031Z,0.33
2023-02-13T19:38:58.286Z,0.24
2023-02-13T19:41:25.702Z,0.22
2023-02-13T19:43:55.987Z,0.12
2023-02-13T19:46:26.251Z,0.16
2023-02-13T19:48:53.477Z,0.20
2023-02-13T19:51:24.356Z,0.17
2023-02-13T19:53:59.489Z,0.14
2023-02-13T19:56:28.122Z,-0.03
2023-02-13T19:59:02.973Z,0.03
2023-02-13T20:01:30.766Z,-0.04
2023-02-13T20:03:57.705Z,-0.01
2023-02-13T20:06:28.341Z,-0.01
2023-02-13T20:08:58.760Z,0.00
2023-02-13T20:11:26.221Z,-0.06
2023-02-13T20:13:57.551Z,-0.06
2023-02-13T20:16:24.891Z,-0.27
2023-02-13T20:18:52.068Z,-0.25
2023-02-13T20:21:20.086Z,-0.25
2023-02-13T20:23:51.746Z,-0.19
2023-02-13T20:26:34.836Z,-0.15
2023-02-13T20:29:02.782Z,-0.19
2023-02-13T20:31:31.440Z,-0.07
2023-02-13T20:33:58.886Z,-0.06
2023-02-13T20:36:29.096Z,-0.13
2023-02-13T20:38:59.637Z,-0.17
2023-02-13T20:41:31.474Z,-0.16
2023-02-13T20:44:00.417Z,-0.36
2023-02-13T20:46:30.944Z,-0.31
2023-02-13T20:48:58.184Z,-0.34
2023-02-13T20:51:25.252Z,-0.26
2023-02-13T20:53:52.179Z,-0.22
2023-02-13T20:56:21.516Z,-0.21
2023-02-13T20:58:49.895Z,-0.26
2023-02-13T21:01:20.546Z,-0.23
2023-02-13T21:03:53.569Z,-0.25
2023-02-13T21:06:34.602Z,-0.25
2023-02-13T21:09:03.037Z,-0.26
2023-02-13T21:11:31.243Z,-0.21
2023-02-13T21:13:58.653Z,-0.31
2023-02-13T21:16:28.775Z,-0.29
2023-02-13T21:18:58.761Z,-0.34
2023-02-13T21:21:28.767Z,-0.34
2023-02-13T21:23:57.286Z,-0.37
2023-02-13T21:26:24.868Z,-0.38
2023-02-13T21:28:52.328Z,-0.41
2023-02-13T21:31:23.907Z,-0.47
2023-02-13T21:33:51.984Z,-0.49
2023-02-13T21:36:19.520Z,-0.47
2023-02-13T21:38:46.335Z,-0.46
2023-02-13T21:41:16.154Z,-0.54
2023-02-13T21:43:47.086Z,-0.55
2023-02-13T21:46:21.318Z,-0.71
2023-02-13T21:48:53.111Z,-0.62
2023-02-13T21:51:20.741Z,-0.64
2023-02-13T21:53:48.660Z,-0.66
2023-02-13T21:56:21.416Z,-0.68
2023-02-13T21:58:49.105Z,-0.63
2023-02-13T22:01:25.975Z,-0.73
2023-02-13T22:04:00.150Z,-0.69
2023-02-13T22:06:29.216Z,-0.79
2023-02-13T22:09:04.441Z,-0.53
2023-02-13T22:11:31.552Z,-0.49
2023-02-13T22:14:25.495Z,-0.62
2023-02-13T22:16:55.009Z,-0.86
2023-02-13T22:19:21.908Z,-0.62
2023-02-13T22:21:48.993Z,-0.58
2023-02-13T22:24:16.156Z,-0.63
2023-02-13T22:26:45.514Z,-0.62
2023-02-13T22:29:14.707Z,-0.55
2023-02-13T22:31:42.134Z,-0.61
2023-02-13T22:34:12.349Z,-0.68
2023-02-13T22:36:39.509Z,-0.69
2023-02-13T22:39:08.264Z,-0.67
2023-02-13T22:41:35.136Z,-0.73
2023-02-13T22:44:01.945Z,-0.72
2023-02-13T22:46:33.304Z,-0.71
2023-02-13T22:49:00.893Z,-0.75
2023-02-13T22:51:31.689Z,-0.70
2023-02-13T22:54:00.149Z,-0.74
2023-02-13T22:56:29.304Z,-0.93
2023-02-13T22:58:56.968Z,-0.83
2023-02-13T23:01:25.556Z,-0.80
2023-02-13T23:03:52.673Z,-0.87
2023-02-13T23:06:19.857Z,-0.82
2023-02-13T23:08:49.181Z,-0.87
2023-02-13T23:11:35.448Z,-0.84
2023-02-13T23:14:02.811Z,-0.82
2023-02-13T23:16:52.797Z,-0.83
2023-02-13T23:19:21.050Z,-0.93
2023-02-13T23:21:48.013Z,-0.83
2023-02-13T23:24:15.265Z,-0.88
2023-02-13T23:26:42.200Z,-0.90
2023-02-13T23:29:09.564Z,-0.98
2023-02-13T23:31:36.594Z,-0.98
2023-02-13T23:34:03.693Z,-0.97
2023-02-13T23:36:30.542Z,-0.88
2023-02-13T23:38:57.394Z,-0.93
2023-02-13T23:41:24.324Z,-0.97
2023-02-13T23:43:51.248Z,-0.94
2023-02-13T23:46:18.211Z,-0.95
2023-02-13T23:48:46.148Z,-0.93
2023-02-13T23:51:13.725Z,-0.91
2023-02-13T23:53:40.659Z,-0.97
2023-02-13T23:56:07.877Z,-0.94
2023-02-13T23:58:34.983Z,-0.94
